Time;durP1;ratioP1;P1;durP2;ratioP2;P2;SDS_P1;SDS_P2;PMS_P1;PMS_P2;Temp;Humidity;BMP_temperature;BMP_pressure;BME280_temperature;BME280_humidity;BME280_pressure;Samples;Min_cycle;Max_cycle;Signal;HPM_P1;HPM_P2
2022/04/07 05:59:37;;;;;;;;;;;12.00;63.20;;;;;;5000632;27;1362656;-51
2022/04/07 06:02:03;;;;;;;;;;;12.10;63.90;;;;;;5047666;28;80152;-52
2022/04/07 06:04:29;;;;;;;;;;;12.10;63.80;;;;;;5047524;28;80295;-51
2022/04/07 06:06:54;;;;;;;;;;;12.10;63.60;;;;;;5047487;28;80575;-52
2022/04/07 06:09:20;;;;;;;;;;;12.20;63.60;;;;;;5047699;28;80113;-52
2022/04/07 06:11:45;;;;;;;;;;;12.10;63.50;;;;;;5047517;28;80330;-52
2022/04/07 06:14:11;;;;;;;;;;;12.10;63.40;;;;;;5047307;28;80827;-52
2022/04/07 06:16:37;;;;;;;;;;;12.20;63.50;;;;;;5047389;28;80075;-52
2022/04/07 06:19:02;;;;;;;;;;;12.20;63.40;;;;;;5049775;28;81603;-51
2022/04/07 06:21:33;;;;;;;;;;;12.20;63.40;;;;;;5047230;28;80085;-52
2022/04/07 06:23:59;;;;;;;;;;;12.20;63.40;;;;;;5047296;28;80445;-51
2022/04/07 06:26:25;;;;;;;;;;;12.20;63.40;;;;;;5047025;28;81973;-52
2022/04/07 06:28:50;;;;;;;;;;;12.20;63.40;;;;;;5047124;28;80037;-52
2022/04/07 06:31:17;;;;;;;;;;;12.20;63.30;;;;;;5047075;28;81420;-52
2022/04/07 06:33:42;;;;;;;;;;;12.20;63.40;;;;;;5046920;28;80835;-52
2022/04/07 06:36:08;;;;;;;;;;;12.20;63.40;;;;;;5047032;28;80312;-52
2022/04/07 06:38:34;;;;;;;;;;;12.10;63.30;;;;;;5047256;28;80384;-51
2022/04/07 06:41:00;;;;;;;;;;;12.20;63.40;;;;;;5049774;28;80706;-52
2022/04/07 06:43:25;;;;;;;;;;;12.20;63.40;;;;;;5046791;28;81391;-51
2022/04/07 06:45:51;;;;;;;;;;;12.10;63.30;;;;;;5047011;28;80705;-52
2022/04/07 06:48:17;;;;;;;;;;;12.20;63.40;;;;;;5046669;28;80406;-52
2022/04/07 06:50:44;;;;;;;;;;;12.10;63.30;;;;;;5046812;28;80448;-53
2022/04/07 06:53:11;;;;;;;;;;;12.10;63.30;;;;;;5046642;28;80930;-51
2022/04/07 06:55:37;;;;;;;;;;;12.10;63.40;;;;;;5046721;28;80202;-52
2022/04/07 06:58:04;;;;;;;;;;;12.10;63.40;;;;;;5039600;28;80159;-52
2022/04/07 07:00:31;;;;;;;;;;;12.10;63.40;;;;;;5013781;28;81809;-51
2022/04/07 07:02:58;;;;;;;;;;;12.10;63.40;;;;;;5015674;28;80225;-52
2022/04/07 07:05:25;;;;;;;;;;;12.10;63.40;;;;;;5012930;28;81873;-52
2022/04/07 07:07:51;;;;;;;;;;;12.10;63.40;;;;;;5012918;28;80205;-52
2022/04/07 07:10:20;;;;;;;;;;;12.10;63.40;;;;;;5013227;28;80182;-51
2022/04/07 07:12:47;;;;;;;;;;;12.10;63.40;;;;;;5012859;28;80782;-51
2022/04/07 07:15:12;;;;;;;;;;;12.10;63.40;;;;;;5013077;28;80273;-52
2022/04/07 07:17:39;;;;;;;;;;;12.10;63.40;;;;;;5013173;28;80309;-53
2022/04/07 07:20:05;;;;;;;;;;;12.10;63.50;;;;;;5011808;28;80854;-52
2022/04/07 07:22:31;;;;;;;;;;;12.10;63.50;;;;;;5012878;28;80100;-52
2022/04/07 07:24:57;;;;;;;;;;;12.10;63.50;;;;;;5015310;28;80473;-52
2022/04/07 07:27:23;;;;;;;;;;;12.00;63.50;;;;;;5012620;28;80175;-52
2022/04/07 07:29:49;;;;;;;;;;;12.00;63.50;;;;;;5012742;28;81326;-52
2022/04/07 07:32:14;;;;;;;;;;;12.00;63.50;;;;;;5012833;28;80074;-52
2022/04/07 07:34:40;;;;;;;;;;;12.10;63.50;;;;;;5012575;28;80158;-51
2022/04/07 07:37:06;;;;;;;;;;;12.00;63.50;;;;;;5012852;28;80234;-52
2022/04/07 07:39:31;;;;;;;;;;;12.10;63.40;;;;;;5012415;28;80955;-52
2022/04/07 07:41:57;;;;;;;;;;;12.00;63.40;;;;;;5012670;28;80280;-54
2022/04/07 07:44:23;;;;;;;;;;;12.10;63.50;;;;;;5011824;28;81517;-52
2022/04/07 07:46:49;;;;;;;;;;;12.10;63.50;;;;;;5014168;28;82009;-52
2022/04/07 07:49:15;;;;;;;;;;;12.10;63.40;;;;;;5011802;28;80236;-53
2022/04/07 07:51:40;;;;;;;;;;;12.00;63.40;;;;;;5011593;28;82215;-51
2022/04/07 07:54:06;;;;;;;;;;;12.10;63.40;;;;;;5011704;28;80314;-52
2022/04/07 07:56:31;;;;;;;;;;;12.00;63.40;;;;;;5012242;28;81233;-52
2022/04/07 07:58:57;;;;;;;;;;;12.10;63.40;;;;;;5011810;28;82173;-52
2022/04/07 08:01:22;;;;;;;;;;;12.10;63.40;;;;;;5012454;28;80144;-52
2022/04/07 08:03:48;;;;;;;;;;;12.10;63.40;;;;;;5012224;28;81172;-52
2022/04/07 08:06:14;;;;;;;;;;;12.10;63.50;;;;;;5012193;28;80690;-52
2022/04/07 08:08:39;;;;;;;;;;;12.10;63.50;;;;;;5014496;28;80093;-51
2022/04/07 08:11:05;;;;;;;;;;;12.10;63.50;;;;;;5010738;28;82138;-52
2022/04/07 08:13:30;;;;;;;;;;;12.10;63.50;;;;;;5012195;28;80315;-52
2022/04/07 08:15:56;;;;;;;;;;;12.10;63.50;;;;;;5012005;28;81554;-52
2022/04/07 08:18:23;;;;;;;;;;;12.10;63.50;;;;;;5011676;28;81716;-51
2022/04/07 08:20:48;;;;;;;;;;;12.10;63.50;;;;;;5011831;28;80229;-52
2022/04/07 08:23:14;;;;;;;;;;;12.10;63.50;;;;;;5012017;28;80186;-52
2022/04/07 08:25:40;;;;;;;;;;;12.10;63.40;;;;;;5011655;28;80987;-52
2022/04/07 08:28:06;;;;;;;;;;;12.10;63.40;;;;;;5014275;28;80283;-52
2022/04/07 08:30:34;;;;;;;;;;;12.10;63.40;;;;;;5011551;28;81864;-53
2022/04/07 08:33:04;;;;;;;;;;;12.10;63.40;;;;;;5011655;28;80233;-51
2022/04/07 08:35:29;;;;;;;;;;;12.10;63.40;;;;;;5011568;28;81357;-56
2022/04/07 08:37:55;;;;;;;;;;;12.10;63.40;;;;;;5011308;28;81863;-51
2022/04/07 08:40:21;;;;;;;;;;;12.10;63.40;;;;;;5011695;28;80257;-52
2022/04/07 08:42:47;;;;;;;;;;;12.10;63.30;;;;;;5011532;28;81216;-52
2022/04/07 08:45:13;;;;;;;;;;;12.10;63.30;;;;;;5011470;28;81749;-51
2022/04/07 08:47:39;;;;;;;;;;;12.00;63.30;;;;;;5011337;28;80134;-53
2022/04/07 08:50:05;;;;;;;;;;;12.10;63.30;;;;;;5014006;28;81439;-52
2022/04/07 08:52:32;;;;;;;;;;;12.00;63.30;;;;;;5011339;28;80425;-51
2022/04/07 08:54:57;;;;;;;;;;;12.00;63.30;;;;;;5011227;28;81638;-52
2022/04/07 08:57:23;;;;;;;;;;;12.00;63.30;;;;;;5011062;28;80942;-52
2022/04/07 08:59:49;;;;;;;;;;;12.00;63.30;;;;;;5011320;28;80391;-51
2022/04/07 09:02:14;;;;;;;;;;;12.00;63.30;;;;;;5011213;28;81466;-52
2022/04/07 09:04:40;;;;;;;;;;;12.00;63.20;;;;;;5011017;28;81935;-53
2022/04/07 09:07:09;;;;;;;;;;;12.00;63.10;;;;;;5011026;28;80219;-51
2022/04/07 09:09:38;;;;;;;;;;;12.00;63.00;;;;;;5011033;28;81561;-52
2022/04/07 09:12:04;;;;;;;;;;;11.90;62.90;;;;;;5013479;28;81722;-54
2022/04/07 09:14:33;;;;;;;;;;;12.00;63.00;;;;;;5011142;28;80249;-54
2022/04/07 09:16:59;;;;;;;;;;;12.00;62.60;;;;;;5010724;28;81815;-54
2022/04/07 09:19:25;;;;;;;;;;;11.90;62.70;;;;;;5010826;28;80191;-52
2022/04/07 09:22:10;;;;;;;;;;;11.90;62.70;;;;;;5011032;28;80144;-52
2022/04/07 09:24:40;;;;;;;;;;;11.90;62.80;;;;;;5010773;28;81910;-55
2022/04/07 09:27:06;;;;;;;;;;;11.90;62.80;;;;;;5010800;28;80657;-52
2022/04/07 09:29:41;;;;;;;;;;;11.90;62.80;;;;;;5010917;28;80480;-55
2022/04/07 09:32:20;;;;;;;;;;;11.90;62.80;;;;;;5010676;28;80670;-51
2022/04/07 09:34:51;;;;;;;;;;;11.90;62.70;;;;;;5013502;28;80120;-51
2022/04/07 09:37:19;;;;;;;;;;;11.90;62.80;;;;;;5010893;28;80766;-52
2022/04/07 09:39:44;;;;;;;;;;;11.90;62.90;;;;;;5010875;28;80175;-53
2022/04/07 09:42:17;;;;;;;;;;;11.90;62.90;;;;;;5010912;28;80132;-55
2022/04/07 09:44:43;;;;;;;;;;;11.90;63.00;;;;;;5010402;28;81821;-55
2022/04/07 09:47:12;;;;;;;;;;;11.90;62.90;;;;;;5010802;28;80268;-56
2022/04/07 09:49:37;;;;;;;;;;;11.90;63.00;;;;;;5010750;28;80472;-52
2022/04/07 09:52:03;;;;;;;;;;;11.90;63.10;;;;;;5010326;28;82279;-55
2022/04/07 09:54:29;;;;;;;;;;;11.90;63.10;;;;;;5010409;28;80266;-52
2022/04/07 09:56:58;;;;;;;;;;;11.80;63.20;;;;;;5013261;28;80167;-55
2022/04/07 09:59:24;;;;;;;;;;;11.90;63.30;;;;;;5010329;28;80159;-51
2022/04/07 10:01:51;;;;;;;;;;;11.90;63.30;;;;;;5010773;28;80267;-51
2022/04/07 10:04:17;;;;;;;;;;;11.80;63.30;;;;;;5009011;28;82424;-52
2022/04/07 10:06:43;;;;;;;;;;;11.80;63.30;;;;;;5010027;28;81093;-53
2022/04/07 10:09:09;;;;;;;;;;;11.80;63.40;;;;;;5009141;28;82171;-53
2022/04/07 10:11:35;;;;;;;;;;;11.80;63.40;;;;;;5009126;28;82362;-51
2022/04/07 10:14:01;;;;;;;;;;;11.80;63.40;;;;;;5008711;28;82884;-52
2022/04/07 10:16:27;;;;;;;;;;;11.80;63.50;;;;;;5011736;28;83364;-54
2022/04/07 10:18:57;;;;;;;;;;;11.80;63.50;;;;;;5008989;28;81932;-52
2022/04/07 10:21:43;;;;;;;;;;;11.80;63.60;;;;;;5009042;28;82744;-52
2022/04/07 10:24:14;;;;;;;;;;;11.80;63.60;;;;;;5008024;28;82565;-52
2022/04/07 10:26:43;;;;;;;;;;;11.80;63.60;;;;;;5009135;28;81875;-55
2022/04/07 10:29:18;;;;;;;;;;;11.80;63.70;;;;;;5008847;28;82085;-56
2022/04/07 10:32:03;;;;;;;;;;;11.80;63.70;;;;;;5009325;28;82091;-52
2022/04/07 10:34:32;;;;;;;;;;;11.80;63.70;;;;;;5009948;28;82208;-55
2022/04/07 10:37:06;;;;;;;;;;;11.80;63.70;;;;;;5012441;28;83276;-53
2022/04/07 10:39:35;;;;;;;;;;;11.80;63.70;;;;;;5014344;28;84539;-56
2022/04/07 10:42:01;;;;;;;;;;;11.80;63.80;;;;;;5012362;28;83094;-55
2022/04/07 10:44:27;;;;;;;;;;;11.80;63.70;;;;;;5012156;28;83747;-55
2022/04/07 10:47:07;;;;;;;;;;;11.80;63.80;;;;;;5012187;28;81858;-55
2022/04/07 10:49:33;;;;;;;;;;;11.80;63.80;;;;;;5012185;28;82184;-53
2022/04/07 10:51:59;;;;;;;;;;;11.80;63.80;;;;;;5011746;28;82519;-51
2022/04/07 10:54:28;;;;;;;;;;;11.80;63.80;;;;;;5011991;28;81763;-51
2022/04/07 10:56:56;;;;;;;;;;;11.80;63.80;;;;;;5012532;28;83022;-51
2022/04/07 10:59:27;;;;;;;;;;;11.80;63.80;;;;;;5011460;28;83664;-54
2022/04/07 11:01:55;;;;;;;;;;;11.80;63.80;;;;;;5014820;28;81982;-54
2022/04/07 11:04:21;;;;;;;;;;;11.80;63.90;;;;;;5011109;28;84235;-51
2022/04/07 11:07:09;;;;;;;;;;;11.80;63.90;;;;;;5012013;28;82029;-51
2022/04/07 11:09:47;;;;;;;;;;;11.80;63.90;;;;;;5011877;28;82886;-52
2022/04/07 11:12:16;;;;;;;;;;;11.90;63.90;;;;;;5011477;28;83254;-55
2022/04/07 11:14:49;;;;;;;;;;;11.90;63.90;;;;;;5012103;28;81972;-54
2022/04/07 11:17:31;;;;;;;;;;;11.90;63.90;;;;;;5011781;28;83184;-54
2022/04/07 11:20:03;;;;;;;;;;;11.90;63.80;;;;;;5011505;28;83269;-52
2022/04/07 11:22:47;;;;;;;;;;;11.90;63.90;;;;;;5012229;28;81505;-56
2022/04/07 11:25:14;;;;;;;;;;;11.90;63.90;;;;;;5014231;28;82136;-55
2022/04/07 11:27:42;;;;;;;;;;;11.90;63.90;;;;;;5011547;28;81835;-55
2022/04/07 11:30:09;;;;;;;;;;;11.90;63.90;;;;;;5011000;28;83253;-53
2022/04/07 11:32:36;;;;;;;;;;;11.90;63.90;;;;;;5011493;28;82787;-52
2022/04/07 11:35:12;;;;;;;;;;;11.90;64.60;;;;;;5011501;28;81848;-51
2022/04/07 11:37:39;;;;;;;;;;;11.90;63.90;;;;;;5011517;28;82937;-52
2022/04/07 11:40:05;;;;;;;;;;;11.90;64.00;;;;;;5011203;28;83585;-51
2022/04/07 11:42:32;;;;;;;;;;;11.90;64.00;;;;;;5011284;28;81880;-51
2022/04/07 11:44:59;;;;;;;;;;;11.90;64.00;;;;;;5011235;28;81969;-53
2022/04/07 11:47:25;;;;;;;;;;;11.90;64.00;;;;;;5014238;28;82576;-52
2022/04/07 11:49:51;;;;;;;;;;;11.90;64.10;;;;;;5011422;28;82071;-51
2022/04/07 11:52:23;;;;;;;;;;;11.90;64.10;;;;;;4993223;28;85005;-51
2022/04/07 11:54:48;;;;;;;;;;;11.90;64.10;;;;;;5010573;28;82752;-51
2022/04/07 11:57:14;;;;;;;;;;;11.90;64.10;;;;;;5010859;28;82974;-51
2022/04/07 11:59:42;;;;;;;;;;;11.90;64.10;;;;;;5011219;28;82420;-52
2022/04/07 12:02:07;;;;;;;;;;;12.00;64.20;;;;;;5011170;28;81825;-52
2022/04/07 12:04:34;;;;;;;;;;;12.00;64.10;;;;;;5010974;28;82036;-55
2022/04/07 12:07:01;;;;;;;;;;;12.00;64.20;;;;;;5010663;28;83531;-51
2022/04/07 12:09:26;;;;;;;;;;;12.00;64.20;;;;;;5013520;28;81867;-51
2022/04/07 12:11:52;;;;;;;;;;;12.00;64.20;;;;;;5011483;28;81138;-51
2022/04/07 12:14:24;;;;;;;;;;;12.00;64.20;;;;;;5010845;28;81889;-52
2022/04/07 12:16:50;;;;;;;;;;;12.00;64.30;;;;;;5010880;28;83349;-52
2022/04/07 12:19:17;;;;;;;;;;;12.00;64.30;;;;;;5009928;28;84373;-51
2022/04/07 12:21:58;;;;;;;;;;;12.00;64.30;;;;;;5010767;28;81819;-51
2022/04/07 12:24:25;;;;;;;;;;;12.00;64.30;;;;;;5010616;28;83400;-51
2022/04/07 12:26:51;;;;;;;;;;;12.10;64.30;;;;;;5010505;28;82604;-51
2022/04/07 12:29:34;;;;;;;;;;;12.10;64.30;;;;;;5013307;28;82018;-53
2022/04/07 12:32:00;;;;;;;;;;;12.10;64.30;;;;;;5010397;28;83259;-53
2022/04/07 12:34:25;;;;;;;;;;;12.10;64.30;;;;;;5010495;28;81975;-51
2022/04/07 12:36:52;;;;;;;;;;;12.10;64.20;;;;;;5010917;28;82023;-51
2022/04/07 12:39:18;;;;;;;;;;;12.10;64.30;;;;;;5010279;28;83300;-51
2022/04/07 12:41:47;;;;;;;;;;;12.10;64.20;;;;;;5010363;28;81694;-52
2022/04/07 12:44:22;;;;;;;;;;;12.10;64.20;;;;;;5009694;28;82869;-51
2022/04/07 12:46:58;;;;;;;;;;;12.10;64.20;;;;;;5010205;28;83422;-51
2022/04/07 12:49:26;;;;;;;;;;;12.10;64.30;;;;;;5010229;28;81905;-51
2022/04/07 12:52:08;;;;;;;;;;;12.10;64.40;;;;;;5012750;28;82056;-51
2022/04/07 12:54:34;;;;;;;;;;;12.10;64.40;;;;;;5010291;28;81799;-51
2022/04/07 12:57:07;;;;;;;;;;;12.10;64.40;;;;;;5009540;28;82181;-52
2022/04/07 12:59:32;;;;;;;;;;;12.10;64.40;;;;;;5009667;28;82590;-51
2022/04/07 13:01:58;;;;;;;;;;;12.20;64.40;;;;;;5010849;28;81239;-51
2022/04/07 13:04:42;;;;;;;;;;;12.10;64.50;;;;;;5010335;28;82102;-51
2022/04/07 13:07:08;;;;;;;;;;;12.20;64.50;;;;;;5009822;28;83298;-51
2022/04/07 13:09:33;;;;;;;;;;;12.20;64.70;;;;;;5009237;28;82953;-51
2022/04/07 13:12:01;;;;;;;;;;;12.10;64.40;;;;;;5010157;28;82693;-51
2022/04/07 13:14:26;;;;;;;;;;;12.20;64.80;;;;;;5012412;28;83717;-52
2022/04/07 13:16:52;;;;;;;;;;;12.20;64.80;;;;;;5009995;28;83525;-52
2022/04/07 13:19:18;;;;;;;;;;;12.20;64.80;;;;;;5009613;28;83375;-53
2022/04/07 13:21:44;;;;;;;;;;;12.20;64.70;;;;;;5010251;28;81786;-51
2022/04/07 13:24:10;;;;;;;;;;;12.20;64.70;;;;;;5010140;28;81803;-52
2022/04/07 13:26:36;;;;;;;;;;;12.20;64.90;;;;;;5010466;28;81454;-51
2022/04/07 13:29:01;;;;;;;;;;;12.20;64.80;;;;;;5009686;28;81902;-51
2022/04/07 13:31:27;;;;;;;;;;;12.10;64.80;;;;;;5009763;28;82307;-52
2022/04/07 13:33:52;;;;;;;;;;;12.10;64.90;;;;;;5009056;28;83139;-51
2022/04/07 13:36:18;;;;;;;;;;;12.10;64.90;;;;;;5012409;28;81851;-52
2022/04/07 13:38:44;;;;;;;;;;;12.10;65.10;;;;;;5009717;28;82250;-53
2022/04/07 13:41:10;;;;;;;;;;;12.10;65.10;;;;;;5009127;28;81823;-51
2022/04/07 13:43:36;;;;;;;;;;;12.10;65.10;;;;;;5009191;28;83051;-52
2022/04/07 13:46:02;;;;;;;;;;;12.20;65.20;;;;;;5008789;28;83823;-52
2022/04/07 13:48:28;;;;;;;;;;;12.20;65.10;;;;;;5008943;28;81839;-55
2022/04/07 13:50:54;;;;;;;;;;;12.20;65.20;;;;;;5009622;28;82828;-54
2022/04/07 13:53:19;;;;;;;;;;;12.20;65.10;;;;;;5008781;28;83491;-55
2022/04/07 13:55:45;;;;;;;;;;;12.20;65.00;;;;;;5009009;28;81844;-51
2022/04/07 13:58:11;;;;;;;;;;;12.20;65.10;;;;;;5010787;28;83095;-52
2022/04/07 14:00:41;;;;;;;;;;;12.20;65.20;;;;;;5008762;28;82026;-54
2022/04/07 14:03:06;;;;;;;;;;;12.30;65.10;;;;;;5008809;28;81808;-52
2022/04/07 14:05:33;;;;;;;;;;;12.30;65.20;;;;;;5008994;28;82513;-55
2022/04/07 14:07:59;;;;;;;;;;;12.30;64.90;;;;;;5008993;28;81907;-54
2022/04/07 14:10:24;;;;;;;;;;;12.30;65.10;;;;;;5011536;28;81865;-52
2022/04/07 14:12:50;;;;;;;;;;;12.20;65.50;;;;;;5012318;28;82321;-51
2022/04/07 14:15:16;;;;;;;;;;;12.20;65.50;;;;;;5013093;28;81100;-54
2022/04/07 14:17:43;;;;;;;;;;;12.20;65.40;;;;;;5012473;28;81906;-52
2022/04/07 14:20:09;;;;;;;;;;;12.20;65.80;;;;;;5014977;28;81845;-55
2022/04/07 14:22:34;;;;;;;;;;;12.20;65.60;;;;;;5011595;28;82694;-52
2022/04/07 14:25:00;;;;;;;;;;;12.20;66.00;;;;;;5011959;28;83851;-54
2022/04/07 14:27:27;;;;;;;;;;;12.20;65.90;;;;;;5012089;28;81850;-53
2022/04/07 14:29:52;;;;;;;;;;;12.20;65.70;;;;;;5011969;28;82982;-52
2022/04/07 14:32:18;;;;;;;;;;;12.30;65.60;;;;;;5012051;28;82329;-55
2022/04/07 14:34:43;;;;;;;;;;;12.20;65.60;;;;;;5012223;28;82007;-53
2022/04/07 14:37:09;;;;;;;;;;;12.30;65.70;;;;;;5011988;28;82165;-51
2022/04/07 14:39:35;;;;;;;;;;;12.30;65.70;;;;;;5015123;28;82657;-53
2022/04/07 14:42:00;;;;;;;;;;;12.30;65.70;;;;;;5011900;28;81875;-51
2022/04/07 14:44:26;;;;;;;;;;;12.30;65.80;;;;;;5011566;28;83603;-54
2022/04/07 14:46:51;;;;;;;;;;;12.30;65.90;;;;;;5011039;28;83114;-55
2022/04/07 14:49:17;;;;;;;;;;;12.20;65.80;;;;;;5011485;28;84379;-52
2022/04/07 14:51:43;;;;;;;;;;;12.20;65.80;;;;;;5011532;28;82703;-51
2022/04/07 14:54:09;;;;;;;;;;;12.20;65.90;;;;;;5011833;28;81863;-52
2022/04/07 14:56:35;;;;;;;;;;;12.20;65.90;;;;;;5011480;28;82425;-51
2022/04/07 14:59:00;;;;;;;;;;;12.20;65.90;;;;;;5011555;28;82699;-51
2022/04/07 15:01:26;;;;;;;;;;;12.20;66.00;;;;;;5014749;28;81837;-51
2022/04/07 15:03:52;;;;;;;;;;;12.20;66.10;;;;;;5012335;28;83015;-52
2022/04/07 15:06:17;;;;;;;;;;;12.20;66.00;;;;;;5012264;28;81840;-51
2022/04/07 15:08:43;;;;;;;;;;;12.20;66.10;;;;;;5012041;28;81960;-52
2022/04/07 15:11:09;;;;;;;;;;;12.20;66.00;;;;;;5010965;28;84617;-51
2022/04/07 15:13:35;;;;;;;;;;;12.20;66.10;;;;;;5011786;28;81826;-51
2022/04/07 15:16:01;;;;;;;;;;;12.20;66.00;;;;;;5011304;28;82045;-51
2022/04/07 15:18:27;;;;;;;;;;;12.20;66.00;;;;;;5011625;28;83380;-51
2022/04/07 15:20:52;;;;;;;;;;;12.20;66.00;;;;;;5011474;28;81838;-51
2022/04/07 15:23:18;;;;;;;;;;;12.10;65.90;;;;;;5014290;28;82929;-52
2022/04/07 15:25:44;;;;;;;;;;;12.20;66.00;;;;;;5011694;28;82161;-51
2022/04/07 15:28:09;;;;;;;;;;;12.20;66.10;;;;;;5012165;28;82086;-51
2022/04/07 15:30:35;;;;;;;;;;;12.20;66.10;;;;;;5011405;28;83428;-51
2022/04/07 15:33:01;;;;;;;;;;;12.20;66.20;;;;;;5011763;28;81811;-51
2022/04/07 15:35:28;;;;;;;;;;;12.20;66.30;;;;;;5010942;28;82913;-52
2022/04/07 15:37:54;;;;;;;;;;;12.20;66.40;;;;;;5011251;28;83630;-51
2022/04/07 15:40:20;;;;;;;;;;;12.20;66.30;;;;;;5011314;28;82031;-51
2022/04/07 15:42:46;;;;;;;;;;;12.20;66.20;;;;;;5011711;28;81858;-51
2022/04/07 15:45:11;;;;;;;;;;;12.20;66.50;;;;;;5013965;28;82556;-51
2022/04/07 15:47:37;;;;;;;;;;;12.10;66.30;;;;;;5011337;28;83205;-52
2022/04/07 15:50:05;;;;;;;;;;;12.20;66.50;;;;;;5011062;28;82646;-51
2022/04/07 15:52:31;;;;;;;;;;;12.10;66.20;;;;;;5011785;28;81174;-51
2022/04/07 15:54:57;;;;;;;;;;;12.20;66.40;;;;;;5011260;28;82589;-51
2022/04/07 15:57:22;;;;;;;;;;;12.20;66.40;;;;;;5010495;28;82436;-51
2022/04/07 15:59:49;;;;;;;;;;;12.20;66.40;;;;;;5010400;28;82750;-52
2022/04/07 16:02:15;;;;;;;;;;;12.10;66.20;;;;;;5011093;28;83037;-52
2022/04/07 16:04:41;;;;;;;;;;;12.10;66.30;;;;;;5011101;28;82503;-51
2022/04/07 16:07:07;;;;;;;;;;;12.20;66.30;;;;;;5013806;28;82016;-51
2022/04/07 16:09:33;;;;;;;;;;;12.20;66.30;;;;;;5010921;28;82740;-52
2022/04/07 16:11:59;;;;;;;;;;;12.20;66.60;;;;;;5010909;28;81895;-52
2022/04/07 16:14:25;;;;;;;;;;;12.10;66.50;;;;;;5010941;28;82980;-53
2022/04/07 16:16:52;;;;;;;;;;;12.20;66.50;;;;;;5011384;28;81711;-51
2022/04/07 16:19:19;;;;;;;;;;;12.20;66.20;;;;;;5010703;28;81886;-51
2022/04/07 16:21:44;;;;;;;;;;;12.20;66.40;;;;;;5010672;28;82049;-52
2022/04/07 16:24:10;;;;;;;;;;;12.20;66.30;;;;;;5009697;28;84561;-51
2022/04/07 16:26:36;;;;;;;;;;;12.10;66.20;;;;;;5010589;28;81830;-51
2022/04/07 16:29:03;;;;;;;;;;;12.20;66.30;;;;;;5013107;28;82956;-53
2022/04/07 16:31:32;;;;;;;;;;;12.20;66.30;;;;;;5009913;28;82126;-52
2022/04/07 16:34:01;;;;;;;;;;;12.20;66.90;;;;;;5010317;28;82918;-56
2022/04/07 16:36:26;;;;;;;;;;;12.10;66.30;;;;;;5010358;28;83810;-52
2022/04/07 16:38:52;;;;;;;;;;;12.20;66.40;;;;;;5010680;28;81934;-53
2022/04/07 16:41:18;;;;;;;;;;;12.20;66.20;;;;;;5010990;28;82842;-53
2022/04/07 16:43:44;;;;;;;;;;;12.20;66.30;;;;;;5010115;28;82590;-53
2022/04/07 16:46:10;;;;;;;;;;;12.10;66.20;;;;;;5010444;28;81862;-52
2022/04/07 16:48:36;;;;;;;;;;;12.20;66.40;;;;;;5011938;28;82789;-53
2022/04/07 16:51:01;;;;;;;;;;;12.10;66.30;;;;;;5010065;28;81802;-53
2022/04/07 16:53:27;;;;;;;;;;;12.20;66.30;;;;;;5009943;28;82036;-53
2022/04/07 16:55:53;;;;;;;;;;;12.20;66.30;;;;;;5010142;28;81814;-54
2022/04/07 16:58:18;;;;;;;;;;;12.20;66.40;;;;;;5009800;28;81830;-52
2022/04/07 17:00:45;;;;;;;;;;;12.10;66.30;;;;;;5010538;28;81889;-52
2022/04/07 17:03:11;;;;;;;;;;;12.10;66.30;;;;;;5009916;28;83414;-53
2022/04/07 17:05:38;;;;;;;;;;;12.10;66.30;;;;;;5010702;28;81164;-51
2022/04/07 17:08:06;;;;;;;;;;;12.10;66.20;;;;;;5010139;28;81883;-51
2022/04/07 17:10:32;;;;;;;;;;;12.10;66.30;;;;;;5012420;28;82707;-51
2022/04/07 17:12:59;;;;;;;;;;;12.10;66.20;;;;;;5009297;28;82929;-53
2022/04/07 17:15:24;;;;;;;;;;;12.10;66.20;;;;;;5009545;28;83275;-52
2022/04/07 17:17:50;;;;;;;;;;;12.10;66.20;;;;;;5009695;28;81837;-52
2022/04/07 17:20:16;;;;;;;;;;;12.10;66.20;;;;;;5009658;28;82399;-52
2022/04/07 17:22:43;;;;;;;;;;;12.10;66.20;;;;;;5009539;28;82800;-52
2022/04/07 17:25:09;;;;;;;;;;;12.10;66.20;;;;;;5009784;28;81926;-52
2022/04/07 17:27:37;;;;;;;;;;;12.10;66.20;;;;;;5009613;28;82847;-53
2022/04/07 17:30:04;;;;;;;;;;;12.10;66.20;;;;;;5009919;28;82831;-52
2022/04/07 17:32:29;;;;;;;;;;;12.10;66.20;;;;;;5012689;28;81880;-53
2022/04/07 17:34:55;;;;;;;;;;;12.10;66.20;;;;;;5009344;28;83352;-53
2022/04/07 17:37:20;;;;;;;;;;;12.10;66.20;;;;;;5008748;28;82813;-53
2022/04/07 17:39:46;;;;;;;;;;;12.10;66.20;;;;;;5009765;28;82686;-52
2022/04/07 17:42:17;;;;;;;;;;;12.10;66.20;;;;;;5009504;28;81820;-53
2022/04/07 17:44:43;;;;;;;;;;;12.10;66.20;;;;;;5009407;28;82005;-53
2022/04/07 17:47:09;;;;;;;;;;;12.10;66.20;;;;;;5009431;28;82845;-52
2022/04/07 17:49:35;;;;;;;;;;;12.10;66.20;;;;;;5009097;28;83596;-52
2022/04/07 17:52:00;;;;;;;;;;;12.10;66.20;;;;;;5009727;28;81818;-53
2022/04/07 17:54:26;;;;;;;;;;;12.10;66.20;;;;;;5012382;28;82937;-54
2022/04/07 17:56:52;;;;;;;;;;;12.10;66.20;;;;;;5009131;28;81894;-53
2022/04/07 17:59:17;;;;;;;;;;;12.10;66.20;;;;;;5009075;28;82977;-53
2022/04/07 18:01:45;;;;;;;;;;;12.10;66.30;;;;;;5008398;28;84711;-53
2022/04/07 18:04:11;;;;;;;;;;;12.10;66.30;;;;;;5009367;28;81910;-53
2022/04/07 18:06:37;;;;;;;;;;;12.10;66.30;;;;;;5009163;28;82996;-53
2022/04/07 18:09:04;;;;;;;;;;;12.10;66.30;;;;;;5008968;28;83286;-53
2022/04/07 18:11:31;;;;;;;;;;;12.10;66.30;;;;;;5009213;28;81899;-53
2022/04/07 18:13:56;;;;;;;;;;;12.10;66.30;;;;;;5009320;28;81905;-53
2022/04/07 18:16:23;;;;;;;;;;;12.10;66.30;;;;;;5011630;28;82576;-56
2022/04/07 18:18:49;;;;;;;;;;;12.10;66.40;;;;;;5009815;28;81889;-56
2022/04/07 18:21:14;;;;;;;;;;;12.10;66.30;;;;;;5009207;28;82465;-53
2022/04/07 18:23:40;;;;;;;;;;;12.10;66.30;;;;;;5009072;28;82122;-52
2022/04/07 18:26:07;;;;;;;;;;;12.10;66.40;;;;;;5008558;28;82801;-53
2022/04/07 18:28:33;;;;;;;;;;;12.10;66.50;;;;;;5008631;28;82616;-54
2022/04/07 18:30:58;;;;;;;;;;;12.10;66.40;;;;;;5009014;28;81822;-57
2022/04/07 18:33:24;;;;;;;;;;;12.10;66.40;;;;;;5009122;28;82004;-54
2022/04/07 18:35:50;;;;;;;;;;;12.10;66.40;;;;;;5009042;28;81744;-54
2022/04/07 18:38:15;;;;;;;;;;;12.10;66.40;;;;;;5011939;28;81846;-57
2022/04/07 18:40:41;;;;;;;;;;;12.10;66.40;;;;;;5008710;28;82611;-56
2022/04/07 18:43:07;;;;;;;;;;;12.10;66.40;;;;;;5009125;28;81333;-56
2022/04/07 18:45:33;;;;;;;;;;;12.00;66.40;;;;;;5008838;28;82603;-57
2022/04/07 18:48:00;;;;;;;;;;;12.10;66.30;;;;;;5008408;28;83524;-53
2022/04/07 18:50:27;;;;;;;;;;;12.10;66.60;;;;;;5008104;28;82835;-53
2022/04/07 18:52:54;;;;;;;;;;;12.10;66.40;;;;;;5008655;28;83909;-54
2022/04/07 18:55:21;;;;;;;;;;;12.00;66.40;;;;;;5009290;28;83358;-55
2022/04/07 18:57:47;;;;;;;;;;;12.10;66.40;;;;;;5013606;28;82150;-56
2022/04/07 19:00:13;;;;;;;;;;;12.10;66.40;;;;;;5012000;28;82332;-53
2022/04/07 19:02:39;;;;;;;;;;;12.10;66.50;;;;;;5012008;28;81863;-55
2022/04/07 19:05:06;;;;;;;;;;;12.10;66.50;;;;;;5012072;28;82075;-54
2022/04/07 19:07:32;;;;;;;;;;;12.10;66.50;;;;;;5012427;28;84129;-57
2022/04/07 19:09:57;;;;;;;;;;;12.10;66.60;;;;;;5011783;28;81968;-57
2022/04/07 19:12:23;;;;;;;;;;;12.00;67.20;;;;;;5011873;28;82060;-53
2022/04/07 19:14:49;;;;;;;;;;;12.10;67.10;;;;;;5010941;28;83537;-54
2022/04/07 19:17:16;;;;;;;;;;;12.10;67.00;;;;;;5011984;28;81783;-55
2022/04/07 19:19:43;;;;;;;;;;;12.10;67.10;;;;;;5014318;28;82803;-53
2022/04/07 19:22:10;;;;;;;;;;;12.00;67.00;;;;;;5011882;28;81807;-52
2022/04/07 19:24:37;;;;;;;;;;;12.10;66.70;;;;;;5011598;28;82934;-55
2022/04/07 19:27:03;;;;;;;;;;;12.10;66.70;;;;;;5011402;28;82584;-52
2022/04/07 19:29:29;;;;;;;;;;;12.00;66.60;;;;;;5011801;28;82105;-57
2022/04/07 19:31:54;;;;;;;;;;;12.00;66.70;;;;;;5012012;28;82845;-55
2022/04/07 19:34:21;;;;;;;;;;;12.00;66.70;;;;;;5011558;28;82320;-53
2022/04/07 19:36:50;;;;;;;;;;;12.00;66.70;;;;;;5011486;28;82015;-54
2022/04/07 19:39:16;;;;;;;;;;;12.00;66.70;;;;;;5009995;28;82761;-56
2022/04/07 19:41:43;;;;;;;;;;;12.00;66.70;;;;;;5013963;28;83444;-54
2022/04/07 19:44:09;;;;;;;;;;;12.00;66.60;;;;;;5011705;28;82029;-52
2022/04/07 19:46:36;;;;;;;;;;;12.00;66.60;;;;;;5011100;28;83531;-56
2022/04/07 19:49:02;;;;;;;;;;;12.00;66.60;;;;;;5011323;28;81786;-54
2022/04/07 19:51:28;;;;;;;;;;;12.00;66.60;;;;;;5011350;28;82737;-54
2022/04/07 19:53:53;;;;;;;;;;;12.00;66.70;;;;;;5011054;28;83588;-56
2022/04/07 19:56:19;;;;;;;;;;;12.00;66.60;;;;;;5011717;28;81339;-56
2022/04/07 19:58:45;;;;;;;;;;;12.00;66.60;;;;;;5010761;28;81816;-50
2022/04/07 20:01:10;;;;;;;;;;;12.00;66.60;;;;;;5010809;28;83742;-53
2022/04/07 20:03:36;;;;;;;;;;;12.00;66.60;;;;;;5013417;28;82746;-53
2022/04/07 20:06:03;;;;;;;;;;;12.00;66.70;;;;;;5011009;28;82575;-53
2022/04/07 20:08:29;;;;;;;;;;;12.00;66.60;;;;;;5010886;28;82046;-54
2022/04/07 20:10:55;;;;;;;;;;;11.90;66.60;;;;;;5010918;28;82065;-53
2022/04/07 20:13:20;;;;;;;;;;;12.00;66.70;;;;;;5010642;28;82446;-53